Location:  
MeteoStar


Sort by weather type Sort by elevation Sort by visibility Sort from west to east north Sort from north to south Alphabetically Sort from strongest wind speed Sort from lowest to highest pressure Sort from highest to lowest dew point temperature Sort coolest temperatures to warmest Sort warm temperatures to coolest
 Metric

Current Observations for United Kingdom sorted by weather type

West Freugh11:00ZShowers40 3641009.5SE 19 Gusting to 27 3136
Benbecula10:50ZLight Showers41 3671006.1SE 17 3319
Shawbury10:50ZLight Snow36 3091013.4SSE 11 28249
Hawarden10:50ZLight Snow36 28161013.1SSE 9 2932
Glenanne11:00ZRain41 4031004.7S 10 35528
Ballypatrick Forest11:00ZRain39 3771006.5S 14 Gusting to 25 31511
Capel Curig11:00ZRain35 332.751011.5SW 9 28708
Isle Of Man / Ronaldsway Airport10:50ZRain39 3771009.2SSE 20 2955
Sennybridge11:00ZLight Rain36 34201012.4S 12 281007
Tiree10:50ZLight Rain41 3941005.1SE 31 3039
Valley10:50ZLight Rain39 36121008.1SSE 22 293
Bristol / Lulsgate 10:50ZLight Rain39 36121013.6SSE 13 Gusting to 23 31620
Cardiff-Wales Airport10:50ZLight Rain41 39121012.3ESE 13 34219
Culdrose10:50ZLight Rain48 4641009.2S 14 Gusting to 33 42255
Belfast / Harbour10:50ZLight Rain41 3971007.1SSE 14 3316
Belfast / Aldergrove Airport10:50ZLight Rain41 3771006.3SE 15 Gusting to 25 33265
Camborne11:00ZShowers in Vicinity47 4641009.2S 19 Gusting to 27 40285
Yeovilton10:50ZShowers nearby45 34121014.2SSE 14 3975
Larkhill11:00ZCloudy40 32201015.7SE 8 35433
Saint Helena Island10:50ZMostly Cloudy74 62301016.5E 9 741427
Eskdalemuir11:00ZMostly Cloudy31 27201013.2WSW 1 31793
Northolt10:50ZMostly Cloudy37 30121017.2SE 5 33124
Middle Wallop10:50ZMostly Cloudy41 34151015.4SSE 9 35298
Odiham10:50ZMostly Cloudy34 30201016.5SSE 7 28403
Brize Norton10:50ZMostly Cloudy36 30201015.4SE 6 31288
Lossiemouth10:50ZMostly Cloudy32 27201012.2SE 6 2642
Liverpool Airport 10:50ZMostly Cloudy37 282.51013.2SSE 13 2985
St Athan Royal Air Force Base10:50ZMostly Cloudy43 3741012.2SE 9 38164
Boscombe Down10:50ZMostly Cloudy39 32201015.5SSE 11 32406
Eglinton / Londonderr10:50ZMostly Cloudy43 3771004.1SSE 18 3529
Fairford Royal Air Force Base10:56ZPartly Cloudy38 31111015.7SSE 10 31285
Exeter Airport10:50ZPartly Cloudy43 36201013.2SSE 17 3598
Prestwick Airport10:50ZPartly Cloudy37 2871010.2ESE 10 3065
Sumburgh Cape 10:50ZPartly Cloudy39 30201013.1SSW 4 3616
Shoreham Airport10:50ZPartly Cloudy45 34191017.1SSE 13 396
Scilly; Saint MaryS10:50ZPartly Cloudy50 46301008.1W 9 46101
Castlederg11:00ZClear40 38251004.5ESE 4 37167
Dunkeswell Aerodrome11:00ZClear41 34181013.0S 17 Gusting to 28 33826
Trawscoed11:00ZClear40 35301010.2SSE 17 Gusting to 28 31206
Topcliffe Royal Air Force Base 10:50ZClear34 28151015.2SE 11 2691
Leconfield10:50ZClear34 28121016.1S 3 3419
Mildenhall Royal Air Force Base10:56ZClear36 36101017.5SSE 6 3132
Lakenheath Royal Air Force Base10:56ZClear35 2891017.5S 5 3132
Aberporth11:00ZClear39 3891008SSE 26 Gusting to 37 28436
Stansted Airport10:50ZClear37 28201018.5SSE 8 31347
Boulmer10:50ZClear34 28151014.2S 11 2675
Kinloss10:50ZClear34 27201012.1SE 6 2922
Stornoway10:50ZClear39 28201009.1ESE 12 3229
Scatsa / Shetland Island10:50ZClear36 3071013.2S 9 2972
Glasgow Airport10:50ZClear34 2771011.1ENE 7 2826
Aberdeen / Dyce10:50ZClear30 2771013.4N 1 30213
Kirkwall Airport10:50ZClear37 30201012.2S 6 3268
Blackpool Airport10:50ZClear36 28121012.1SE 14 2732
Lydd Airport 10:50ZClear43 36121018.1S 9 389
London / Heathrow Airport10:50ZClear37 30121017.2SSE 5 3378
Farnborough10:50ZClear36 30131017.3SE 7 30213
London City Airport10:50ZClear41 30191018.1ESE 5 3816
London / Gatwick Airport10:50ZClear41 32191017.3SSE 6 37203
Alderney / Channel Island11:20ZClear43 30251015.3SSE 20 34232
Southampton / Weather Centre10:50ZClear43 30251017.1SSE 7 3929
Bournemouth Airport10:50ZClear43 30251016.1S 15 3636
Luton Airport 10:50ZClear36 302.51016.6SSE 6 31524
Plymouth11:00ZClear45 4281012.0SSE 17 Gusting to 30 38164
Manchester Airport10:50ZClear37 2771013.3SSE 8 31226
Staverton Private 10:50ZClear41 3271014.2SSE 11 3495